createdAt,value
2022-11-19T00:01:54.234Z,-4.70
2022-11-19T00:04:17.987Z,-4.70
2022-11-19T00:06:41.528Z,-4.70
2022-11-19T00:09:05.781Z,-4.70
2022-11-19T00:11:47.736Z,-4.70
2022-11-19T00:14:13.443Z,-4.70
2022-11-19T00:16:38.379Z,-4.60
2022-11-19T00:19:01.989Z,-4.70
2022-11-19T00:21:25.556Z,-4.80
2022-11-19T00:23:49.114Z,-4.80
2022-11-19T00:26:14.715Z,-4.80
2022-11-19T00:28:39.176Z,-4.80
2022-11-19T00:31:06.472Z,-4.90
2022-11-19T00:33:32.713Z,-4.90
2022-11-19T00:35:57.516Z,-4.90
2022-11-19T00:38:21.111Z,-4.90
2022-11-19T00:40:44.628Z,-4.90
2022-11-19T00:43:30.950Z,-4.90
2022-11-19T00:45:54.558Z,-4.90
2022-11-19T00:48:18.126Z,-4.90
2022-11-19T00:50:44.073Z,-4.90
2022-11-19T00:53:07.597Z,-4.90
2022-11-19T00:55:31.206Z,-4.90
2022-11-19T00:57:54.744Z,-4.90
2022-11-19T01:00:19.185Z,-4.90
2022-11-19T01:02:42.689Z,-5.00
2022-11-19T01:05:07.743Z,-5.00
2022-11-19T01:07:32.759Z,-5.00
2022-11-19T01:09:56.426Z,-5.00
2022-11-19T01:12:19.922Z,-5.00
2022-11-19T01:14:43.566Z,-5.00
2022-11-19T01:17:07.075Z,-5.00
2022-11-19T01:19:30.654Z,-4.90
2022-11-19T01:21:54.239Z,-5.00
2022-11-19T01:24:19.218Z,-5.00
2022-11-19T01:26:45.824Z,-5.00
2022-11-19T01:29:09.913Z,-5.00
2022-11-19T01:31:33.443Z,-5.00
2022-11-19T01:33:57.329Z,-4.90
2022-11-19T01:36:23.517Z,-5.00
2022-11-19T01:38:50.976Z,-5.00
2022-11-19T01:41:15.975Z,-5.10
2022-11-19T01:43:48.039Z,-5.00
2022-11-19T01:46:12.291Z,-5.10
2022-11-19T01:48:40.911Z,-5.10
2022-11-19T01:51:09.293Z,-5.10
2022-11-19T01:53:35.647Z,-5.10
2022-11-19T01:56:04.001Z,-5.20
2022-11-19T01:58:29.026Z,-5.20
2022-11-19T02:00:52.851Z,-5.20
2022-11-19T02:03:18.833Z,-5.20
2022-11-19T02:05:44.481Z,-5.20
2022-11-19T02:08:11.331Z,-5.10
2022-11-19T02:10:45.333Z,-5.20
2022-11-19T02:13:17.529Z,-5.20
2022-11-19T02:15:51.914Z,-5.20
2022-11-19T02:18:37.293Z,-5.20
2022-11-19T02:21:18.817Z,-5.30
2022-11-19T02:24:35.779Z,-5.30
2022-11-19T02:27:43.734Z,-5.30
2022-11-19T02:30:13.873Z,-5.30
2022-11-19T02:32:46.732Z,-5.30
2022-11-19T02:35:20.760Z,-5.30
2022-11-19T02:37:51.005Z,-5.40
2022-11-19T02:40:24.229Z,-5.40
2022-11-19T02:42:56.606Z,-5.40
2022-11-19T02:45:26.682Z,-5.40
2022-11-19T02:47:55.333Z,-5.40
2022-11-19T02:50:23.400Z,-5.40
2022-11-19T02:52:48.279Z,-5.50
2022-11-19T02:55:13.958Z,-5.50
2022-11-19T02:57:38.701Z,-5.50
2022-11-19T03:00:22.901Z,-5.50
2022-11-19T03:03:10.413Z,-5.50
2022-11-19T03:05:37.463Z,-5.50
2022-11-19T03:08:01.259Z,-5.50
2022-11-19T03:10:29.886Z,-5.50
2022-11-19T03:12:56.687Z,-5.50
2022-11-19T03:15:47.499Z,-5.50
2022-11-19T03:18:18.382Z,-5.50
2022-11-19T03:20:46.727Z,-5.50
2022-11-19T03:23:17.616Z,-5.50
2022-11-19T03:25:46.628Z,-5.50
2022-11-19T03:28:15.063Z,-5.50
2022-11-19T03:30:41.839Z,-5.50
2022-11-19T03:33:08.957Z,-5.50
2022-11-19T03:35:39.283Z,-5.50
2022-11-19T03:38:08.796Z,-5.50
2022-11-19T03:40:34.247Z,-5.50
2022-11-19T03:42:59.332Z,-5.50
2022-11-19T03:45:27.644Z,-5.50
2022-11-19T03:47:53.303Z,-5.50
2022-11-19T03:50:22.939Z,-5.60
2022-11-19T03:52:47.997Z,-5.60
2022-11-19T03:55:11.994Z,-5.60
2022-11-19T03:57:35.534Z,-5.50
2022-11-19T03:59:59.090Z,-5.60
2022-11-19T04:02:23.001Z,-5.60
2022-11-19T04:04:46.511Z,-5.50
2022-11-19T04:07:13.777Z,-5.50
2022-11-19T04:09:39.399Z,-5.60
2022-11-19T04:12:03.189Z,-5.60
2022-11-19T04:14:26.994Z,-5.60
2022-11-19T04:16:50.652Z,-5.60
2022-11-19T04:19:14.460Z,-5.50
2022-11-19T04:21:38.078Z,-5.60
2022-11-19T04:24:01.604Z,-5.40
2022-11-19T04:26:26.589Z,-5.60
2022-11-19T04:28:50.103Z,-5.60
2022-11-19T04:31:17.841Z,-5.60
2022-11-19T04:33:41.797Z,-5.60
2022-11-19T04:36:06.032Z,-5.60
2022-11-19T04:38:29.583Z,-5.60
2022-11-19T04:40:53.194Z,-5.60
2022-11-19T04:43:18.083Z,-5.60
2022-11-19T04:45:41.685Z,-5.60
2022-11-19T04:48:05.635Z,-5.60
2022-11-19T04:50:29.210Z,-5.60
2022-11-19T04:52:52.726Z,-5.60
2022-11-19T04:55:16.573Z,-5.60
2022-11-19T04:57:40.258Z,-5.60
2022-11-19T05:00:07.029Z,-5.60
2022-11-19T05:02:30.531Z,-5.60
2022-11-19T05:04:54.195Z,-5.60
2022-11-19T05:07:17.739Z,-5.60
2022-11-19T05:09:41.415Z,-5.60
2022-11-19T05:12:05.581Z,-5.60
2022-11-19T05:14:30.663Z,-5.60
2022-11-19T05:16:55.780Z,-5.50
2022-11-19T05:19:19.490Z,-5.60
2022-11-19T05:21:43.157Z,-5.60
2022-11-19T05:24:07.727Z,-5.50
2022-11-19T05:26:31.262Z,-5.50
2022-11-19T05:28:54.877Z,-5.50
2022-11-19T05:31:18.451Z,-5.50
2022-11-19T05:33:43.492Z,-5.50
2022-11-19T05:36:08.497Z,-5.50
2022-11-19T05:38:32.068Z,-5.50
2022-11-19T05:40:55.661Z,-5.50
2022-11-19T05:43:19.262Z,-5.50
2022-11-19T05:45:42.778Z,-5.50
2022-11-19T05:48:07.181Z,-5.50
2022-11-19T05:50:32.145Z,-5.50
2022-11-19T05:53:00.106Z,-5.40
2022-11-19T05:55:23.678Z,-5.50
2022-11-19T05:57:47.282Z,-5.50
2022-11-19T06:00:13.466Z,-5.50
2022-11-19T06:02:37.394Z,-5.50
2022-11-19T06:05:00.951Z,-5.50
2022-11-19T06:07:26.147Z,-5.50
2022-11-19T06:09:49.741Z,-5.50
2022-11-19T06:12:13.349Z,-5.50
2022-11-19T06:14:36.891Z,-5.50
2022-11-19T06:17:01.822Z,-5.50
2022-11-19T06:19:26.302Z,-5.50
2022-11-19T06:21:50.544Z,-5.50
2022-11-19T06:24:15.664Z,-5.50
2022-11-19T06:26:39.385Z,-5.50
2022-11-19T06:29:03.214Z,-5.50
2022-11-19T06:31:26.998Z,-5.40
2022-11-19T06:33:50.800Z,-5.50
2022-11-19T06:36:14.463Z,-5.50
2022-11-19T06:38:37.961Z,-5.50
2022-11-19T06:41:03.118Z,-5.50
2022-11-19T06:43:26.678Z,-5.50
2022-11-19T06:45:50.434Z,-5.40
2022-11-19T06:48:13.986Z,-5.30
2022-11-19T06:50:37.609Z,-5.40
2022-11-19T06:53:01.229Z,-5.40
2022-11-19T06:55:25.242Z,-5.40
2022-11-19T06:57:50.411Z,-5.30
2022-11-19T07:00:15.979Z,-5.30
2022-11-19T07:02:39.576Z,-5.30
2022-11-19T07:05:03.260Z,-5.30
2022-11-19T07:07:27.651Z,-5.30
2022-11-19T07:09:51.357Z,-5.20
2022-11-19T07:12:15.032Z,-5.10
2022-11-19T07:14:40.212Z,-5.10
2022-11-19T07:17:03.777Z,-5.00
2022-11-19T07:19:27.409Z,-5.00
2022-11-19T07:21:51.119Z,-4.90
2022-11-19T07:24:19.160Z,-4.80
2022-11-19T07:26:43.019Z,-4.60
2022-11-19T07:29:09.113Z,-4.50
2022-11-19T07:31:35.211Z,-4.40
2022-11-19T07:33:59.067Z,-4.30
2022-11-19T07:36:22.897Z,-4.10
2022-11-19T07:38:46.660Z,-4.00
2022-11-19T07:41:23.979Z,-3.90
2022-11-19T07:43:47.627Z,-3.70
2022-11-19T07:46:11.139Z,-3.50
2022-11-19T07:48:36.075Z,-3.40
2022-11-19T07:50:59.601Z,-3.30
2022-11-19T07:53:23.175Z,-3.00
2022-11-19T07:55:47.515Z,-3.00
2022-11-19T07:58:11.070Z,-2.90
2022-11-19T08:00:34.601Z,-2.80
2022-11-19T08:02:58.180Z,-2.70
2022-11-19T08:05:23.079Z,-2.60
2022-11-19T08:07:46.633Z,-2.50
2022-11-19T08:10:12.014Z,-2.40
2022-11-19T08:12:35.606Z,-2.40
2022-11-19T08:14:59.130Z,-2.30
2022-11-19T08:17:39.976Z,-2.20
2022-11-19T08:20:03.569Z,-2.10
2022-11-19T08:22:29.237Z,-1.90
2022-11-19T08:24:52.841Z,-1.90
2022-11-19T08:27:17.295Z,-1.80
2022-11-19T08:29:40.929Z,-1.50
2022-11-19T08:32:04.593Z,-1.40
2022-11-19T08:34:28.267Z,-1.50
2022-11-19T08:36:51.929Z,-1.40
2022-11-19T08:39:16.948Z,-1.30
2022-11-19T08:41:57.788Z,-1.00
2022-11-19T08:44:22.087Z,-1.10
2022-11-19T08:46:45.978Z,-1.00
2022-11-19T08:49:09.723Z,-1.00
2022-11-19T08:51:33.537Z,-1.00
2022-11-19T08:53:57.273Z,-0.90
2022-11-19T08:56:22.743Z,-0.90
2022-11-19T08:58:46.451Z,-0.90
2022-11-19T09:01:11.994Z,-0.80
2022-11-19T09:03:35.714Z,-0.70
2022-11-19T09:06:00.885Z,-0.60
2022-11-19T09:08:24.439Z,-0.60
2022-11-19T09:10:48.046Z,-0.50
2022-11-19T09:13:13.323Z,-0.50
2022-11-19T09:15:37.481Z,-0.40
2022-11-19T09:18:01.228Z,-0.40
2022-11-19T09:20:25.397Z,-0.40
2022-11-19T09:22:49.029Z,-0.30
2022-11-19T09:25:13.113Z,-0.30
2022-11-19T09:27:37.329Z,-0.20
2022-11-19T09:30:02.281Z,-0.20
2022-11-19T09:32:26.141Z,-0.10
2022-11-19T09:34:50.336Z,-0.10
2022-11-19T09:37:14.161Z,0.00
2022-11-19T09:39:38.311Z,0.10
2022-11-19T09:42:15.495Z,0.20
2022-11-19T09:45:13.645Z,0.30
2022-11-19T09:47:59.648Z,0.40
2022-11-19T09:50:25.617Z,0.50
2022-11-19T09:52:55.095Z,0.50
2022-11-19T09:55:22.779Z,0.50
2022-11-19T09:57:51.901Z,0.50
2022-11-19T10:00:20.892Z,0.50
2022-11-19T10:02:45.888Z,0.60
2022-11-19T10:05:15.498Z,0.60
2022-11-19T10:07:51.313Z,0.60
2022-11-19T10:10:34.143Z,0.60
2022-11-19T10:13:21.825Z,0.70
2022-11-19T10:16:04.545Z,0.80
2022-11-19T10:18:40.197Z,0.80
2022-11-19T10:21:12.685Z,0.90
2022-11-19T10:23:49.647Z,1.00
2022-11-19T10:26:17.408Z,1.10
2022-11-19T10:28:45.121Z,1.10
2022-11-19T10:31:15.730Z,1.10
2022-11-19T10:33:49.662Z,1.10
2022-11-19T10:36:20.912Z,1.20
2022-11-19T10:38:55.685Z,1.30
2022-11-19T10:41:33.910Z,1.40
2022-11-19T10:44:02.064Z,1.40
2022-11-19T10:46:27.512Z,1.50
2022-11-19T10:48:56.539Z,1.60
2022-11-19T10:51:24.498Z,1.70
2022-11-19T10:53:48.522Z,1.70
2022-11-19T10:56:16.064Z,1.80
2022-11-19T10:58:45.156Z,1.90
2022-11-19T11:01:18.621Z,1.90
2022-11-19T11:03:49.820Z,2.00
2022-11-19T11:06:15.007Z,2.00
2022-11-19T11:08:50.571Z,2.10
2022-11-19T11:11:14.683Z,2.20
2022-11-19T11:13:58.124Z,2.20
2022-11-19T11:16:25.109Z,2.20
2022-11-19T11:18:50.075Z,2.20
2022-11-19T11:21:32.676Z,2.20
2022-11-19T11:23:57.575Z,2.30
2022-11-19T11:26:24.835Z,2.30
2022-11-19T11:28:58.923Z,2.30
2022-11-19T11:31:41.392Z,2.30
2022-11-19T11:34:06.905Z,2.40
2022-11-19T11:36:33.939Z,2.40
2022-11-19T11:39:00.909Z,2.40
2022-11-19T11:44:21.468Z,2.50
2022-11-19T11:46:49.088Z,2.60
2022-11-19T11:49:30.119Z,2.70
2022-11-19T11:52:15.628Z,2.80
2022-11-19T11:54:54.377Z,2.80
2022-11-19T11:57:21.214Z,3.00
2022-11-19T11:59:45.076Z,3.10
2022-11-19T12:02:20.642Z,3.20
2022-11-19T12:04:44.249Z,3.30
2022-11-19T12:07:25.648Z,3.30
2022-11-19T12:09:59.484Z,3.40
2022-11-19T12:12:34.311Z,3.40
2022-11-19T12:15:05.530Z,3.50
2022-11-19T12:17:45.172Z,3.60
2022-11-19T12:20:22.607Z,3.60
2022-11-19T12:23:06.667Z,3.60
2022-11-19T12:25:36.565Z,3.60
2022-11-19T12:28:20.323Z,3.60
2022-11-19T12:30:57.455Z,3.50
2022-11-19T12:33:44.650Z,3.50
2022-11-19T12:36:17.612Z,3.50
2022-11-19T12:38:55.121Z,3.50
2022-11-19T12:42:01.250Z,3.50
2022-11-19T12:44:38.770Z,3.40
2022-11-19T12:47:18.515Z,3.50
2022-11-19T12:49:56.216Z,3.50
2022-11-19T12:53:08.322Z,3.50
2022-11-19T12:55:41.134Z,3.40
2022-11-19T12:58:19.968Z,3.50
2022-11-19T13:00:53.155Z,3.50
2022-11-19T13:03:22.221Z,3.40
2022-11-19T13:05:53.220Z,3.30
2022-11-19T13:08:25.447Z,3.30
2022-11-19T13:10:57.297Z,3.30
2022-11-19T13:13:29.459Z,3.30
2022-11-19T13:16:00.225Z,3.20
2022-11-19T13:18:25.362Z,3.30
2022-11-19T13:20:53.829Z,3.30
2022-11-19T13:23:23.924Z,3.20
2022-11-19T13:25:57.884Z,3.20
2022-11-19T13:28:27.998Z,3.20
2022-11-19T13:30:54.771Z,3.10
2022-11-19T13:33:26.362Z,3.20
2022-11-19T13:35:58.344Z,3.20
2022-11-19T13:38:32.453Z,3.20
2022-11-19T13:41:07.110Z,3.10
2022-11-19T13:43:48.076Z,3.10
2022-11-19T13:46:25.760Z,3.00
2022-11-19T13:48:56.764Z,3.00
2022-11-19T13:51:28.907Z,3.00
2022-11-19T13:53:52.611Z,2.90
2022-11-19T13:56:18.741Z,2.80
2022-11-19T13:58:48.115Z,2.80
2022-11-19T14:01:44.986Z,2.80
2022-11-19T14:04:30.747Z,2.70
2022-11-19T14:07:14.056Z,2.70
2022-11-19T14:09:44.838Z,2.60
2022-11-19T14:12:56.516Z,2.60
2022-11-19T14:16:10.487Z,2.60
2022-11-19T14:18:57.242Z,2.50
2022-11-19T14:22:10.764Z,2.50
2022-11-19T14:25:26.847Z,2.40
2022-11-19T14:27:51.877Z,2.40
2022-11-19T14:30:20.071Z,2.40
2022-11-19T14:32:48.092Z,2.30
2022-11-19T14:35:38.499Z,2.30
2022-11-19T14:38:44.297Z,2.30
2022-11-19T14:41:24.580Z,2.20
2022-11-19T14:44:33.488Z,2.20
2022-11-19T14:46:57.605Z,2.20
2022-11-19T14:49:38.046Z,2.00
2022-11-19T14:52:03.196Z,2.00
2022-11-19T14:54:39.584Z,1.90
2022-11-19T14:57:28.247Z,1.90
2022-11-19T14:59:59.409Z,1.80
2022-11-19T15:02:28.399Z,1.90
2022-11-19T15:05:05.473Z,1.80
2022-11-19T15:07:42.945Z,1.80
2022-11-19T15:10:31.433Z,1.80
2022-11-19T15:13:17.457Z,1.80
2022-11-19T15:15:45.395Z,1.70
2022-11-19T15:19:05.776Z,1.70
2022-11-19T15:22:19.189Z,1.70
2022-11-19T15:25:22.377Z,1.70
2022-11-19T15:28:04.767Z,1.60
2022-11-19T15:30:45.665Z,1.60
2022-11-19T15:33:49.850Z,1.70
2022-11-19T15:36:36.709Z,1.70
2022-11-19T15:39:10.757Z,1.70
2022-11-19T15:41:41.888Z,1.70
2022-11-19T15:44:10.339Z,1.60
2022-11-19T15:46:44.963Z,1.60
2022-11-19T15:49:17.345Z,1.60
2022-11-19T15:52:00.148Z,1.60
2022-11-19T15:54:29.733Z,1.50
2022-11-19T15:56:53.412Z,1.60
2022-11-19T15:59:20.285Z,1.60
2022-11-19T16:01:45.799Z,1.60
2022-11-19T16:04:16.427Z,1.50
2022-11-19T16:06:42.749Z,1.50
2022-11-19T16:09:06.568Z,1.50
2022-11-19T16:11:51.673Z,1.50
2022-11-19T16:14:41.088Z,1.50
2022-11-19T16:17:30.419Z,1.50
2022-11-19T16:20:07.716Z,1.50
2022-11-19T16:22:32.007Z,1.60
2022-11-19T16:25:05.751Z,1.50
2022-11-19T16:27:30.493Z,1.60
2022-11-19T16:29:54.118Z,1.60
2022-11-19T16:32:21.616Z,1.60
2022-11-19T16:34:45.316Z,1.60
2022-11-19T16:37:13.648Z,1.70
2022-11-19T16:39:38.631Z,1.60
2022-11-19T16:42:18.929Z,1.60
2022-11-19T16:44:43.334Z,1.70
2022-11-19T16:47:11.719Z,1.60
2022-11-19T16:49:56.057Z,1.70
2022-11-19T16:52:42.047Z,1.70
2022-11-19T16:55:09.789Z,1.70
2022-11-19T16:57:34.014Z,1.70
2022-11-19T17:00:00.519Z,1.70
2022-11-19T17:02:29.941Z,1.70
2022-11-19T17:04:55.056Z,1.70
2022-11-19T17:07:25.176Z,1.70
2022-11-19T17:09:48.829Z,1.70
2022-11-19T17:12:28.454Z,1.70
2022-11-19T17:14:55.826Z,1.80
2022-11-19T17:17:36.922Z,1.70
2022-11-19T17:20:06.379Z,1.70
2022-11-19T17:22:34.145Z,1.70
2022-11-19T17:24:58.849Z,1.80
2022-11-19T17:27:28.858Z,1.80
2022-11-19T17:29:56.578Z,1.80
2022-11-19T17:32:20.121Z,1.80
2022-11-19T17:34:47.001Z,1.80
2022-11-19T17:37:11.944Z,1.80
2022-11-19T17:39:35.519Z,1.80
2022-11-19T17:42:16.570Z,1.80
2022-11-19T17:44:40.766Z,1.90
2022-11-19T17:47:13.547Z,1.80
2022-11-19T17:49:45.777Z,1.80
2022-11-19T17:52:14.596Z,1.90
2022-11-19T17:54:38.409Z,1.90
2022-11-19T17:57:01.986Z,1.90
2022-11-19T17:59:25.672Z,1.90
2022-11-19T18:01:49.472Z,1.90
2022-11-19T18:04:14.152Z,1.80
2022-11-19T18:06:37.685Z,1.90
2022-11-19T18:09:02.817Z,1.90
2022-11-19T18:11:27.328Z,1.90
2022-11-19T18:13:57.230Z,1.90
2022-11-19T18:16:23.555Z,1.90
2022-11-19T18:18:47.250Z,1.90
2022-11-19T18:21:12.962Z,2.00
2022-11-19T18:23:36.514Z,1.90
2022-11-19T18:26:01.437Z,1.90
2022-11-19T18:28:25.004Z,1.90
2022-11-19T18:30:48.848Z,1.90
2022-11-19T18:33:13.105Z,2.00
2022-11-19T18:35:36.764Z,2.00
2022-11-19T18:38:00.836Z,2.00
2022-11-19T18:40:24.455Z,2.00
2022-11-19T18:43:06.999Z,2.00
2022-11-19T18:45:31.263Z,2.00
2022-11-19T18:47:54.812Z,2.00
2022-11-19T18:50:18.787Z,2.00
2022-11-19T18:52:42.325Z,2.00
2022-11-19T18:55:07.218Z,2.00
2022-11-19T18:57:30.753Z,2.00
2022-11-19T18:59:55.740Z,2.00
2022-11-19T19:02:19.247Z,2.00
2022-11-19T19:04:42.961Z,2.00
2022-11-19T19:07:07.906Z,2.00
2022-11-19T19:09:31.527Z,2.00
2022-11-19T19:12:13.703Z,2.00
2022-11-19T19:14:37.684Z,2.00
2022-11-19T19:17:03.169Z,2.00
2022-11-19T19:19:26.873Z,2.00
2022-11-19T19:21:50.505Z,2.00
2022-11-19T19:24:14.571Z,2.00
2022-11-19T19:26:38.217Z,2.00
2022-11-19T19:29:02.177Z,2.00
2022-11-19T19:31:26.441Z,2.00
2022-11-19T19:33:52.738Z,2.00
2022-11-19T19:36:17.588Z,2.00
2022-11-19T19:38:41.761Z,2.00
2022-11-19T19:41:07.048Z,2.00
2022-11-19T19:43:31.272Z,2.10
2022-11-19T19:45:54.866Z,2.00
2022-11-19T19:48:18.491Z,2.10
2022-11-19T19:50:51.893Z,2.00
2022-11-19T19:53:15.472Z,2.00
2022-11-19T19:55:38.981Z,2.00
2022-11-19T19:58:05.429Z,2.00
2022-11-19T20:00:29.034Z,2.00
2022-11-19T20:02:52.721Z,2.10
2022-11-19T20:05:16.583Z,2.00
2022-11-19T20:07:41.572Z,2.00
2022-11-19T20:10:06.013Z,2.00
2022-11-19T20:12:49.561Z,2.00
2022-11-19T20:15:13.376Z,2.00
2022-11-19T20:17:37.156Z,1.90
2022-11-19T20:20:00.765Z,2.00
2022-11-19T20:22:24.297Z,2.00
2022-11-19T20:24:49.243Z,2.00
2022-11-19T20:27:12.835Z,2.00
2022-11-19T20:29:36.395Z,1.90
2022-11-19T20:32:00.141Z,1.90
2022-11-19T20:34:23.792Z,2.00
2022-11-19T20:36:47.713Z,1.90
2022-11-19T20:39:12.601Z,2.00
2022-11-19T20:41:55.232Z,1.90
2022-11-19T20:44:22.784Z,1.90
2022-11-19T20:46:47.145Z,1.90
2022-11-19T20:49:15.569Z,1.90
2022-11-19T20:51:41.264Z,1.90
2022-11-19T20:54:05.705Z,1.90
2022-11-19T20:56:29.386Z,1.90
2022-11-19T20:58:54.313Z,2.00
2022-11-19T21:01:21.041Z,1.90
2022-11-19T21:03:44.680Z,1.90
2022-11-19T21:06:09.311Z,1.90
2022-11-19T21:08:33.438Z,1.90
2022-11-19T21:11:01.609Z,1.90
2022-11-19T21:13:25.215Z,1.80
2022-11-19T21:15:50.184Z,1.80
2022-11-19T21:18:13.726Z,1.80
2022-11-19T21:20:37.293Z,1.70
2022-11-19T21:23:00.832Z,1.70
2022-11-19T21:25:24.557Z,1.70
2022-11-19T21:27:48.202Z,1.70
2022-11-19T21:30:13.104Z,1.70
2022-11-19T21:32:38.252Z,1.70
2022-11-19T21:35:01.807Z,1.70
2022-11-19T21:37:25.396Z,1.70
2022-11-19T21:39:48.985Z,1.70
2022-11-19T21:42:12.518Z,1.70
2022-11-19T21:44:36.124Z,1.80
2022-11-19T21:46:59.670Z,1.70
2022-11-19T21:49:24.624Z,1.70
2022-11-19T21:51:49.123Z,1.70
2022-11-19T21:54:12.733Z,1.80
2022-11-19T21:56:38.834Z,1.70
2022-11-19T21:59:02.703Z,1.70
2022-11-19T22:01:26.241Z,1.80
2022-11-19T22:03:49.818Z,1.70
2022-11-19T22:06:14.883Z,1.70
2022-11-19T22:08:40.913Z,1.70
2022-11-19T22:11:25.390Z,1.70
2022-11-19T22:13:49.014Z,1.70
2022-11-19T22:16:12.584Z,1.70
2022-11-19T22:18:36.157Z,1.60
2022-11-19T22:21:03.406Z,1.60
2022-11-19T22:23:28.380Z,1.70
2022-11-19T22:25:51.886Z,1.60
2022-11-19T22:28:15.494Z,1.60
2022-11-19T22:30:38.992Z,1.60
2022-11-19T22:33:02.576Z,1.60
2022-11-19T22:35:26.099Z,1.60
2022-11-19T22:37:49.717Z,1.60
2022-11-19T22:40:15.563Z,1.60
2022-11-19T22:42:39.173Z,1.60
2022-11-19T22:45:02.670Z,1.60
2022-11-19T22:47:26.283Z,1.60
2022-11-19T22:49:49.815Z,1.60
2022-11-19T22:52:14.638Z,1.60
2022-11-19T22:54:41.637Z,1.60
2022-11-19T22:57:07.027Z,1.60
2022-11-19T22:59:30.547Z,1.60
2022-11-19T23:01:54.153Z,1.60
2022-11-19T23:04:17.714Z,1.60
2022-11-19T23:06:41.287Z,1.60
2022-11-19T23:09:06.351Z,1.60
2022-11-19T23:11:47.351Z,1.60
2022-11-19T23:14:14.665Z,1.50
2022-11-19T23:16:39.207Z,1.50
2022-11-19T23:19:02.820Z,1.50
2022-11-19T23:21:29.388Z,1.50
2022-11-19T23:23:53.832Z,1.40
2022-11-19T23:26:20.454Z,1.50
2022-11-19T23:28:44.796Z,1.50
2022-11-19T23:31:12.645Z,1.40
2022-11-19T23:33:36.492Z,1.40
2022-11-19T23:36:04.689Z,1.30
2022-11-19T23:38:28.256Z,1.40
2022-11-19T23:40:59.904Z,1.30
2022-11-19T23:43:23.844Z,1.40
2022-11-19T23:45:47.370Z,1.30
2022-11-19T23:48:12.383Z,1.30
2022-11-19T23:50:35.893Z,1.30
2022-11-19T23:52:59.493Z,1.30
2022-11-19T23:55:22.990Z,1.30
2022-11-19T23:57:46.670Z,1.30
